createdAt,value
2024-04-30T00:00:05.070Z,70.13
2024-04-30T00:01:05.197Z,69.82
2024-04-30T00:02:05.033Z,70.23
2024-04-30T00:03:05.135Z,70.03
2024-04-30T00:04:05.118Z,70.03
2024-04-30T00:05:05.066Z,69.82
2024-04-30T00:06:04.988Z,70.16
2024-04-30T00:07:04.988Z,70.43
2024-04-30T00:08:04.966Z,70.26
2024-04-30T00:09:05.099Z,70.47
2024-04-30T00:10:04.957Z,70.43
2024-04-30T00:11:04.935Z,70.67
2024-04-30T00:12:04.904Z,70.16
2024-04-30T00:13:04.880Z,70.67
2024-04-30T00:14:04.869Z,70.47
2024-04-30T00:15:04.860Z,70.57
2024-04-30T00:16:04.871Z,69.85
2024-04-30T00:17:04.801Z,70.47
2024-04-30T00:18:04.872Z,70.37
2024-04-30T00:19:04.808Z,70.37
2024-04-30T00:20:04.819Z,70.47
2024-04-30T00:21:04.735Z,70.61
2024-04-30T00:22:04.772Z,69.85
2024-04-30T00:23:04.739Z,70.67
2024-04-30T00:24:04.686Z,70.47
2024-04-30T00:25:04.683Z,70.67
2024-04-30T00:26:04.660Z,70.71
2024-04-30T00:27:04.655Z,70.06
2024-04-30T00:28:04.657Z,70.09
2024-04-30T00:29:04.648Z,70.61
2024-04-30T00:30:04.592Z,70.81
2024-04-30T00:31:04.622Z,70.71
2024-04-30T00:32:04.603Z,70.50
2024-04-30T00:33:04.631Z,70.67
2024-04-30T00:34:04.641Z,70.67
2024-04-30T00:35:04.543Z,70.78
2024-04-30T00:36:04.584Z,70.91
2024-04-30T00:37:04.526Z,70.67
2024-04-30T00:38:04.470Z,70.88
2024-04-30T00:39:04.490Z,70.91
2024-04-30T00:40:04.480Z,70.20
2024-04-30T00:41:04.426Z,70.81
2024-04-30T00:42:04.427Z,71.22
2024-04-30T00:43:04.433Z,71.12
2024-04-30T00:44:04.382Z,71.49
2024-04-30T00:45:04.359Z,71.70
2024-04-30T00:46:04.358Z,71.59
2024-04-30T00:47:04.342Z,71.70
2024-04-30T00:48:04.354Z,71.80
2024-04-30T00:49:04.351Z,71.39
2024-04-30T00:50:04.284Z,71.08
2024-04-30T00:51:04.265Z,70.88
2024-04-30T00:52:04.278Z,70.57
2024-04-30T00:53:04.236Z,70.78
2024-04-30T00:54:04.766Z,70.37
2024-04-30T00:55:04.272Z,71.08
2024-04-30T00:56:04.192Z,71.08
2024-04-30T00:57:04.176Z,71.70
2024-04-30T00:58:04.232Z,71.70
2024-04-30T00:59:04.147Z,71.29
2024-04-30T01:00:04.178Z,71.29
2024-04-30T01:01:04.286Z,71.29
2024-04-30T01:02:04.147Z,70.57
2024-04-30T01:03:04.117Z,70.98
2024-04-30T01:04:04.088Z,71.39
2024-04-30T01:05:04.048Z,70.57
2024-04-30T01:06:04.028Z,71.29
2024-04-30T01:07:04.034Z,71.08
2024-04-30T01:08:04.000Z,71.42
2024-04-30T01:09:03.999Z,71.39
2024-04-30T01:10:04.053Z,70.98
2024-04-30T01:11:03.949Z,70.88
2024-04-30T01:12:03.941Z,70.98
2024-04-30T01:13:03.997Z,70.98
2024-04-30T01:14:03.915Z,71.19
2024-04-30T01:15:03.892Z,71.01
2024-04-30T01:16:03.894Z,71.08
2024-04-30T01:17:03.966Z,70.71
2024-04-30T01:18:03.859Z,70.81
2024-04-30T01:19:03.847Z,71.22
2024-04-30T01:20:03.828Z,71.22
2024-04-30T01:21:03.818Z,71.32
2024-04-30T01:22:03.826Z,71.73
2024-04-30T01:23:03.769Z,71.73
2024-04-30T01:24:03.749Z,71.73
2024-04-30T01:25:03.775Z,71.73
2024-04-30T01:26:03.733Z,71.42
2024-04-30T01:27:03.701Z,71.15
2024-04-30T01:28:03.761Z,71.25
2024-04-30T01:29:03.702Z,71.04
2024-04-30T01:30:03.667Z,71.15
2024-04-30T01:31:03.668Z,71.45
2024-04-30T01:32:03.642Z,71.04
2024-04-30T01:33:03.672Z,71.15
2024-04-30T01:34:03.602Z,71.66
2024-04-30T01:35:03.573Z,71.97
2024-04-30T01:36:03.561Z,71.83
2024-04-30T01:37:03.562Z,71.77
2024-04-30T01:38:03.534Z,71.77
2024-04-30T01:39:03.507Z,71.77
2024-04-30T01:40:03.518Z,71.04
2024-04-30T01:41:03.487Z,71.22
2024-04-30T01:42:03.457Z,71.04
2024-04-30T01:43:03.506Z,71.86
2024-04-30T01:44:03.427Z,71.86
2024-04-30T01:45:03.415Z,71.86
2024-04-30T01:46:03.442Z,71.66
2024-04-30T01:47:03.383Z,71.45
2024-04-30T01:48:03.459Z,71.15
2024-04-30T01:49:03.429Z,71.04
2024-04-30T01:50:03.364Z,70.94
2024-04-30T01:51:03.318Z,70.84
2024-04-30T01:52:03.334Z,70.74
2024-04-30T01:53:03.298Z,71.39
2024-04-30T01:54:03.278Z,71.77
2024-04-30T01:55:03.264Z,71.77
2024-04-30T01:56:03.272Z,71.77
2024-04-30T01:57:03.231Z,71.77
2024-04-30T01:58:03.238Z,71.66
2024-04-30T01:59:03.222Z,71.45
2024-04-30T02:00:03.308Z,71.66
2024-04-30T02:01:03.238Z,71.77
2024-04-30T02:02:03.174Z,71.80
2024-04-30T02:03:03.129Z,71.39
2024-04-30T02:04:03.186Z,71.18
2024-04-30T02:05:10.411Z,71.18
2024-04-30T02:06:03.087Z,71.59
2024-04-30T02:07:03.087Z,71.90
2024-04-30T02:08:03.060Z,71.80
2024-04-30T02:09:03.036Z,71.08
2024-04-30T02:10:03.119Z,71.18
2024-04-30T02:11:03.039Z,71.28
2024-04-30T02:12:02.984Z,71.01
2024-04-30T02:13:02.985Z,70.98
2024-04-30T02:14:02.950Z,71.42
2024-04-30T02:15:02.954Z,71.52
2024-04-30T02:16:02.957Z,71.83
2024-04-30T02:17:03.049Z,71.83
2024-04-30T02:18:02.920Z,71.93
2024-04-30T02:19:02.940Z,72.03
2024-04-30T02:20:02.876Z,71.93
2024-04-30T02:21:02.844Z,72.03
2024-04-30T02:22:02.837Z,71.52
2024-04-30T02:23:02.821Z,71.22
2024-04-30T02:24:02.791Z,71.11
2024-04-30T02:25:02.815Z,71.83
2024-04-30T02:26:02.856Z,71.93
2024-04-30T02:27:02.755Z,71.93
2024-04-30T02:28:02.811Z,71.93
2024-04-30T02:29:02.723Z,71.83
2024-04-30T02:30:02.707Z,71.73
2024-04-30T02:31:02.717Z,71.83
2024-04-30T02:32:02.722Z,71.73
2024-04-30T02:33:02.751Z,71.62
2024-04-30T02:34:02.667Z,71.76
2024-04-30T02:35:02.620Z,71.56
2024-04-30T02:36:02.606Z,71.66
2024-04-30T02:37:02.713Z,71.56
2024-04-30T02:38:02.572Z,71.66
2024-04-30T02:39:02.557Z,71.56
2024-04-30T02:40:02.625Z,71.66
2024-04-30T02:41:02.535Z,71.66
2024-04-30T02:42:02.506Z,71.56
2024-04-30T02:43:02.515Z,71.56
2024-04-30T02:44:02.486Z,71.56
2024-04-30T02:45:02.466Z,71.76
2024-04-30T02:46:02.462Z,71.86
2024-04-30T02:47:02.453Z,71.56
2024-04-30T02:48:02.503Z,71.56
2024-04-30T02:49:02.503Z,71.66
2024-04-30T02:50:02.384Z,71.66
2024-04-30T02:51:02.362Z,71.66
2024-04-30T02:52:02.388Z,71.66
2024-04-30T02:53:02.328Z,71.76
2024-04-30T02:54:02.324Z,71.86
2024-04-30T02:55:02.449Z,71.76
2024-04-30T02:56:02.295Z,71.76
2024-04-30T02:57:02.318Z,71.76
2024-04-30T02:58:02.265Z,71.66
2024-04-30T02:59:02.230Z,71.66
2024-04-30T03:00:02.232Z,71.86
2024-04-30T03:01:02.408Z,71.80
2024-04-30T03:02:02.261Z,71.97
2024-04-30T03:03:02.193Z,72.10
2024-04-30T03:04:02.211Z,71.69
2024-04-30T03:05:02.173Z,71.80
2024-04-30T03:06:02.119Z,72.00
2024-04-30T03:07:02.143Z,72.20
2024-04-30T03:08:02.076Z,72.07
2024-04-30T03:09:02.062Z,71.97
2024-04-30T03:10:02.110Z,71.97
2024-04-30T03:11:02.066Z,72.17
2024-04-30T03:12:02.024Z,72.17
2024-04-30T03:13:02.068Z,72.17
2024-04-30T03:14:01.988Z,72.07
2024-04-30T03:15:01.970Z,72.07
2024-04-30T03:16:01.990Z,72.38
2024-04-30T03:17:01.976Z,72.07
2024-04-30T03:18:02.070Z,72.27
2024-04-30T03:19:01.920Z,72.17
2024-04-30T03:20:01.900Z,72.27
2024-04-30T03:21:01.871Z,72.17
2024-04-30T03:22:01.918Z,72.44
2024-04-30T03:23:01.834Z,72.14
2024-04-30T03:24:01.819Z,72.03
2024-04-30T03:25:01.928Z,71.93
2024-04-30T03:26:01.791Z,72.14
2024-04-30T03:27:01.791Z,72.24
2024-04-30T03:28:03.251Z,72.14
2024-04-30T03:29:01.765Z,72.14
2024-04-30T03:30:01.727Z,72.75
2024-04-30T03:31:01.768Z,72.75
2024-04-30T03:32:01.706Z,72.65
2024-04-30T03:33:01.878Z,72.55
2024-04-30T03:37:31.885Z,72.24
2024-04-30T03:38:31.861Z,72.41
2024-04-30T03:41:15.235Z,72.52
2024-04-30T03:42:15.157Z,72.61
2024-04-30T03:44:22.173Z,72.52
2024-04-30T03:45:22.105Z,72.41
2024-04-30T03:46:22.137Z,71.97
2024-04-30T03:47:22.187Z,72.20
2024-04-30T03:48:22.101Z,72.20
2024-04-30T03:49:22.054Z,72.20
2024-04-30T03:50:22.020Z,72.00
2024-04-30T03:51:22.000Z,72.20
2024-04-30T03:52:22.017Z,72.58
2024-04-30T03:53:21.969Z,72.07
2024-04-30T03:54:21.953Z,72.17
2024-04-30T03:55:21.981Z,72.17
2024-04-30T03:56:21.922Z,72.07
2024-04-30T03:57:21.897Z,72.28
2024-04-30T03:58:22.060Z,72.58
2024-04-30T03:59:21.900Z,72.48
2024-04-30T04:00:21.882Z,72.48
2024-04-30T04:01:21.926Z,72.48
2024-04-30T04:02:21.857Z,72.28
2024-04-30T04:03:21.845Z,72.48
2024-04-30T04:04:21.956Z,72.28
2024-04-30T04:05:21.796Z,71.97
2024-04-30T04:06:21.757Z,72.07
2024-04-30T04:07:21.769Z,72.17
2024-04-30T04:08:21.726Z,72.07
2024-04-30T04:09:21.726Z,71.94
2024-04-30T04:10:21.763Z,71.97
2024-04-30T04:11:21.709Z,72.07
2024-04-30T04:12:21.679Z,71.97
2024-04-30T04:13:21.700Z,72.28
2024-04-30T04:14:21.637Z,72.17
2024-04-30T04:15:21.612Z,72.07
2024-04-30T04:16:21.662Z,71.97
2024-04-30T04:17:21.713Z,71.97
2024-04-30T04:18:21.766Z,72.38
2024-04-30T04:19:21.599Z,71.66
2024-04-30T04:20:21.562Z,72.07
2024-04-30T04:21:23.977Z,71.77
2024-04-30T04:22:21.635Z,72.07
2024-04-30T04:23:21.504Z,72.07
2024-04-30T04:24:21.471Z,71.97
2024-04-30T04:25:21.506Z,71.86
2024-04-30T04:26:21.440Z,71.86
2024-04-30T04:27:21.444Z,72.04
2024-04-30T04:28:21.421Z,71.97
2024-04-30T04:29:21.402Z,72.07
2024-04-30T04:30:21.383Z,72.07
2024-04-30T04:31:21.425Z,72.07
2024-04-30T04:32:21.393Z,72.28
2024-04-30T04:33:21.376Z,71.86
2024-04-30T04:34:21.348Z,71.97
2024-04-30T04:35:21.305Z,72.48
2024-04-30T04:36:21.288Z,71.77
2024-04-30T04:37:22.412Z,71.97
2024-04-30T04:38:21.275Z,72.17
2024-04-30T04:39:21.248Z,71.73
2024-04-30T04:40:21.259Z,71.94
2024-04-30T04:41:21.255Z,71.62
2024-04-30T04:42:21.183Z,71.66
2024-04-30T04:43:21.272Z,71.45
2024-04-30T04:44:21.158Z,71.45
2024-04-30T04:45:21.140Z,71.56
2024-04-30T04:46:21.178Z,71.36
2024-04-30T04:47:21.188Z,71.36
2024-04-30T04:48:21.201Z,71.45
2024-04-30T04:49:21.124Z,71.36
2024-04-30T04:50:21.065Z,71.66
2024-04-30T04:51:21.042Z,71.86
2024-04-30T04:52:21.067Z,72.07
2024-04-30T04:53:21.010Z,71.86
2024-04-30T04:54:21.012Z,71.97
2024-04-30T04:55:21.060Z,71.86
2024-04-30T04:56:20.959Z,71.83
2024-04-30T04:57:20.953Z,71.53
2024-04-30T04:58:20.964Z,71.77
2024-04-30T04:59:20.924Z,71.77
2024-04-30T05:00:20.897Z,71.66
2024-04-30T05:01:20.966Z,71.42
2024-04-30T05:02:20.935Z,71.32
2024-04-30T05:03:20.856Z,71.53
2024-04-30T05:04:20.943Z,71.53
2024-04-30T05:05:20.833Z,71.49
2024-04-30T05:06:20.801Z,71.42
2024-04-30T05:07:20.807Z,71.32
2024-04-30T05:08:20.833Z,71.29
2024-04-30T05:09:20.751Z,71.70
2024-04-30T05:10:20.750Z,71.59
2024-04-30T05:11:20.740Z,71.66
2024-04-30T05:12:20.709Z,71.56
2024-04-30T05:13:20.742Z,71.25
2024-04-30T05:14:20.680Z,71.46
2024-04-30T05:15:20.664Z,71.25
2024-04-30T05:16:20.653Z,71.42
2024-04-30T05:17:20.670Z,71.22
2024-04-30T05:18:20.623Z,71.22
2024-04-30T05:19:20.632Z,71.29
2024-04-30T05:20:20.582Z,71.19
2024-04-30T05:21:20.565Z,71.56
2024-04-30T05:22:20.585Z,71.46
2024-04-30T05:23:20.528Z,71.36
2024-04-30T05:24:20.518Z,71.46
2024-04-30T05:25:20.521Z,71.43
2024-04-30T05:26:20.491Z,71.09
2024-04-30T05:27:20.468Z,71.09
2024-04-30T05:28:20.472Z,71.46
2024-04-30T05:29:20.456Z,71.36
2024-04-30T05:30:20.424Z,71.06
2024-04-30T05:31:20.437Z,71.33
2024-04-30T05:32:20.498Z,71.09
2024-04-30T05:33:20.446Z,71.19
2024-04-30T05:34:20.395Z,71.16
2024-04-30T05:35:20.398Z,70.95
2024-04-30T05:36:28.167Z,71.06
2024-04-30T05:38:24.793Z,71.12
2024-04-30T05:39:24.779Z,71.09
2024-04-30T05:41:29.225Z,71.16
2024-04-30T05:42:29.197Z,71.06
2024-04-30T05:44:34.680Z,71.23
2024-04-30T05:45:34.640Z,71.23
2024-04-30T05:47:29.169Z,71.20
2024-04-30T05:48:29.117Z,70.59
2024-04-30T05:50:33.482Z,70.65
2024-04-30T05:51:33.475Z,70.42
2024-04-30T05:53:38.911Z,70.32
2024-04-30T05:54:38.876Z,70.08
2024-04-30T05:56:44.337Z,69.88
2024-04-30T05:57:44.319Z,69.88
2024-04-30T05:59:49.831Z,69.81
2024-04-30T06:00:49.826Z,69.51
2024-04-30T06:02:55.287Z,69.27
2024-04-30T06:03:55.302Z,69.07
2024-04-30T06:06:00.727Z,68.43
2024-04-30T06:07:00.702Z,68.73
2024-04-30T06:08:00.689Z,69.01
2024-04-30T06:09:00.665Z,69.41
2024-04-30T06:10:00.664Z,68.19
2024-04-30T06:11:00.678Z,69.38
2024-04-30T06:12:00.619Z,68.47
2024-04-30T06:13:00.612Z,68.33
2024-04-30T06:14:00.639Z,69.55
2024-04-30T06:15:00.664Z,69.11
2024-04-30T06:16:00.578Z,68.91
2024-04-30T06:17:00.558Z,69.21
2024-04-30T06:18:00.663Z,68.67
2024-04-30T06:19:00.734Z,68.98
2024-04-30T06:20:00.726Z,68.37
2024-04-30T06:21:00.503Z,68.98
2024-04-30T06:22:00.485Z,69.04
2024-04-30T06:23:00.475Z,67.90
2024-04-30T06:24:00.476Z,68.04
2024-04-30T06:25:00.451Z,67.60
2024-04-30T06:26:00.468Z,67.80
2024-04-30T06:27:00.470Z,67.97
2024-04-30T06:28:00.423Z,67.97
2024-04-30T06:29:00.439Z,68.07
2024-04-30T06:30:00.475Z,67.87
2024-04-30T06:31:00.372Z,67.94
2024-04-30T06:32:00.364Z,68.21
2024-04-30T06:33:00.688Z,68.11
2024-04-30T06:34:00.384Z,67.71
2024-04-30T06:35:00.467Z,67.37
2024-04-30T06:36:00.372Z,67.44
2024-04-30T06:37:00.312Z,67.44
2024-04-30T06:38:00.326Z,67.54
2024-04-30T06:39:00.296Z,67.71
2024-04-30T06:40:00.341Z,67.31
2024-04-30T06:41:00.314Z,67.47
2024-04-30T06:42:00.254Z,67.38
2024-04-30T06:43:00.247Z,67.14
2024-04-30T06:44:00.247Z,67.04
2024-04-30T06:45:00.211Z,66.84
2024-04-30T06:46:00.186Z,66.74
2024-04-30T06:47:00.179Z,66.91
2024-04-30T06:48:00.253Z,66.91
2024-04-30T06:49:00.156Z,66.81
2024-04-30T06:50:00.222Z,66.67
2024-04-30T06:51:00.125Z,66.58
2024-04-30T06:52:00.120Z,66.55
2024-04-30T06:53:00.106Z,66.82
2024-04-30T06:54:00.101Z,66.71
2024-04-30T06:55:00.108Z,66.41
2024-04-30T06:56:00.075Z,66.28
2024-04-30T06:57:00.061Z,66.38
2024-04-30T06:58:00.050Z,66.15
2024-04-30T06:59:00.040Z,66.12
2024-04-30T07:00:00.033Z,65.82
2024-04-30T07:01:00.038Z,65.72
2024-04-30T07:02:00.013Z,65.78
2024-04-30T07:03:00.059Z,65.89
2024-04-30T07:03:59.994Z,65.78
2024-04-30T07:05:00.062Z,65.66
2024-04-30T07:05:59.960Z,65.45
2024-04-30T07:06:59.963Z,65.42
2024-04-30T07:07:59.944Z,65.63
2024-04-30T07:08:59.942Z,65.59
2024-04-30T07:09:59.919Z,65.29
2024-04-30T07:11:02.338Z,65.46
2024-04-30T07:11:59.903Z,65.26
2024-04-30T07:12:59.911Z,64.96
2024-04-30T07:13:59.886Z,64.83
2024-04-30T07:14:59.873Z,64.60
2024-04-30T07:15:59.880Z,64.80
2024-04-30T07:17:06.167Z,64.57
2024-04-30T07:17:59.856Z,64.37
2024-04-30T07:18:59.830Z,64.64
2024-04-30T07:19:59.821Z,63.88
2024-04-30T07:20:59.816Z,60.96
2024-04-30T07:21:59.807Z,55.54
2024-04-30T07:22:59.804Z,50.54
2024-04-30T07:23:59.803Z,47.48
2024-04-30T07:24:59.778Z,46.25
2024-04-30T07:25:59.768Z,44.37
2024-04-30T07:26:59.768Z,44.37
2024-04-30T07:27:59.753Z,43.51
2024-04-30T07:28:59.745Z,42.75
2024-04-30T07:29:59.739Z,42.69
2024-04-30T07:30:59.733Z,41.76
2024-04-30T07:31:59.756Z,41.62
2024-04-30T07:32:59.809Z,41.39
2024-04-30T07:33:59.752Z,41.44
2024-04-30T07:34:59.790Z,41.60
2024-04-30T07:35:59.700Z,41.55
2024-04-30T07:36:59.689Z,41.41
2024-04-30T07:37:59.697Z,41.47
2024-04-30T07:38:59.688Z,41.24
2024-04-30T07:39:59.694Z,40.83
2024-04-30T07:40:59.685Z,39.76
2024-04-30T07:41:59.675Z,40.03
2024-04-30T07:42:59.661Z,41.13
2024-04-30T07:43:59.918Z,41.21
2024-04-30T07:44:59.653Z,40.98
2024-04-30T07:45:59.649Z,40.95
2024-04-30T07:46:59.732Z,40.63
2024-04-30T07:47:59.767Z,40.70
2024-04-30T07:49:00.828Z,40.40
2024-04-30T07:50:00.846Z,39.62
2024-04-30T07:50:59.643Z,39.90
2024-04-30T07:51:59.650Z,39.70
2024-04-30T07:52:59.770Z,39.87
2024-04-30T07:53:59.656Z,40.34
2024-04-30T07:55:00.359Z,39.96
2024-04-30T07:55:59.774Z,39.39
2024-04-30T07:56:59.707Z,39.65
2024-04-30T07:57:59.672Z,39.65
2024-04-30T07:58:59.846Z,39.54
2024-04-30T08:00:00.362Z,39.73
2024-04-30T08:00:59.677Z,39.71
2024-04-30T08:02:00.117Z,39.62
2024-04-30T08:02:59.744Z,39.90
2024-04-30T08:03:59.613Z,39.88
2024-04-30T08:04:59.662Z,39.31
2024-04-30T08:06:59.799Z,40.35
2024-04-30T08:07:59.757Z,39.95
2024-04-30T08:08:59.849Z,39.86
2024-04-30T08:09:59.873Z,39.75
2024-04-30T08:11:00.208Z,39.84
2024-04-30T08:12:00.740Z,39.54
2024-04-30T08:12:59.679Z,39.63
2024-04-30T08:14:00.444Z,39.54
2024-04-30T08:14:59.629Z,39.25
2024-04-30T08:16:00.568Z,40.55
2024-04-30T08:16:59.823Z,40.25
2024-04-30T08:17:59.745Z,40.23
2024-04-30T08:18:59.578Z,40.89
2024-04-30T08:19:59.887Z,40.56
2024-04-30T08:20:59.811Z,40.26
2024-04-30T08:21:59.888Z,40.36
2024-04-30T08:22:59.809Z,40.62
2024-04-30T08:24:00.355Z,40.13
2024-04-30T08:24:59.695Z,40.31
2024-04-30T08:25:59.996Z,39.47
2024-04-30T08:26:59.598Z,39.26
2024-04-30T08:27:59.608Z,39.92
2024-04-30T08:28:59.675Z,40.11
2024-04-30T08:29:59.595Z,40.93
2024-04-30T08:30:59.578Z,40.07
2024-04-30T08:31:59.589Z,40.07
2024-04-30T08:32:59.629Z,39.50
2024-04-30T08:33:59.617Z,39.04
2024-04-30T08:34:59.594Z,39.22
2024-04-30T08:35:59.587Z,39.71
2024-04-30T08:36:59.601Z,39.15
2024-04-30T08:38:01.337Z,39.06
2024-04-30T08:38:59.578Z,39.15
2024-04-30T08:39:59.584Z,39.17
2024-04-30T08:40:59.599Z,38.23
2024-04-30T08:41:59.584Z,39.37
2024-04-30T08:42:59.589Z,40.31
2024-04-30T08:43:59.586Z,40.01
2024-04-30T08:45:01.604Z,40.20
2024-04-30T08:45:59.615Z,39.92
2024-04-30T08:46:59.676Z,40.20
2024-04-30T08:47:59.646Z,40.00
2024-04-30T08:48:59.589Z,40.35
2024-04-30T08:50:05.812Z,40.42
2024-04-30T08:50:59.676Z,40.07
2024-04-30T08:51:59.605Z,40.05
2024-04-30T08:52:59.592Z,40.42
2024-04-30T08:53:59.595Z,40.52
2024-04-30T08:54:59.595Z,40.66
2024-04-30T08:55:59.611Z,40.38
2024-04-30T08:56:59.625Z,40.19
2024-04-30T08:57:59.602Z,40.45
2024-04-30T08:58:59.620Z,40.17
2024-04-30T08:59:59.613Z,40.25
2024-04-30T09:00:59.709Z,40.16
2024-04-30T09:01:59.601Z,40.34
2024-04-30T09:03:00.597Z,39.42
2024-04-30T09:03:59.686Z,39.45
2024-04-30T09:04:59.641Z,39.16
2024-04-30T09:05:59.615Z,39.18
2024-04-30T09:06:59.610Z,40.42
2024-04-30T09:07:59.979Z,40.03
2024-04-30T09:08:59.617Z,40.80
2024-04-30T09:09:59.636Z,40.50
2024-04-30T09:10:59.735Z,40.68
2024-04-30T09:11:59.753Z,40.31
2024-04-30T09:12:59.617Z,40.85
2024-04-30T09:13:59.637Z,40.36
2024-04-30T09:14:59.625Z,40.57
2024-04-30T09:15:59.630Z,40.57
2024-04-30T09:16:59.731Z,40.78
2024-04-30T09:17:59.689Z,41.36
2024-04-30T09:18:59.641Z,42.27
2024-04-30T09:19:59.632Z,42.76
2024-04-30T09:21:11.986Z,42.78
2024-04-30T09:21:59.645Z,42.61
2024-04-30T09:22:59.908Z,43.72
2024-04-30T09:23:59.695Z,42.76
2024-04-30T09:24:59.647Z,42.15
2024-04-30T09:26:00.524Z,42.81
2024-04-30T09:26:59.655Z,42.93
2024-04-30T09:27:59.666Z,42.62
2024-04-30T09:28:59.692Z,42.30
2024-04-30T09:29:59.657Z,42.18
2024-04-30T09:30:59.723Z,42.07
2024-04-30T09:31:59.960Z,41.15
2024-04-30T09:33:00.043Z,41.08
2024-04-30T09:33:59.818Z,41.34
2024-04-30T09:34:59.676Z,41.74
2024-04-30T09:36:02.456Z,41.47
2024-04-30T09:37:01.958Z,41.50
2024-04-30T09:37:59.728Z,42.38
2024-04-30T09:38:59.689Z,42.08
2024-04-30T09:40:00.251Z,41.91
2024-04-30T09:40:59.707Z,41.82
2024-04-30T09:41:59.698Z,41.80
2024-04-30T09:42:59.689Z,41.47
2024-04-30T09:43:59.696Z,41.74
2024-04-30T09:44:59.695Z,41.81
2024-04-30T09:45:59.748Z,41.25
2024-04-30T09:46:59.809Z,41.32
2024-04-30T09:47:59.798Z,41.34
2024-04-30T09:48:59.711Z,42.37
2024-04-30T09:50:01.273Z,42.16
2024-04-30T09:50:59.714Z,42.16
2024-04-30T09:51:59.712Z,41.88
2024-04-30T09:52:59.716Z,41.71
2024-04-30T09:53:59.728Z,41.55
2024-04-30T09:54:59.728Z,42.22
2024-04-30T09:55:59.727Z,42.11
2024-04-30T09:56:59.735Z,42.00
2024-04-30T09:57:59.737Z,41.69
2024-04-30T09:58:59.763Z,42.10
2024-04-30T09:59:59.761Z,42.17
2024-04-30T10:00:59.764Z,41.59
2024-04-30T10:01:59.771Z,41.77
2024-04-30T10:02:59.907Z,42.14
2024-04-30T10:03:59.827Z,41.87
2024-04-30T10:04:59.863Z,41.80
2024-04-30T10:05:59.782Z,42.17
2024-04-30T10:06:59.774Z,41.61
2024-04-30T10:07:59.786Z,42.49
2024-04-30T10:08:59.801Z,42.89
2024-04-30T10:09:59.794Z,42.70
2024-04-30T10:10:59.873Z,42.86
2024-04-30T10:11:59.803Z,42.80
2024-04-30T10:12:59.804Z,42.70
2024-04-30T10:13:59.811Z,42.96
2024-04-30T10:14:59.810Z,42.75
2024-04-30T10:15:59.817Z,42.66
2024-04-30T10:16:59.929Z,42.66
2024-04-30T10:17:59.833Z,42.29
2024-04-30T10:18:59.839Z,41.44
2024-04-30T10:19:59.840Z,41.91
2024-04-30T10:20:59.847Z,41.65
2024-04-30T10:21:59.852Z,42.58
2024-04-30T10:22:59.867Z,42.49
2024-04-30T10:23:59.869Z,42.94
2024-04-30T10:24:59.856Z,42.54
2024-04-30T10:25:59.866Z,42.24
2024-04-30T10:26:59.875Z,42.76
2024-04-30T10:27:59.870Z,42.92
2024-04-30T10:28:59.880Z,42.53
2024-04-30T10:29:59.876Z,42.50
2024-04-30T10:30:59.882Z,42.49
2024-04-30T10:31:59.912Z,42.46
2024-04-30T10:32:59.990Z,42.46
2024-04-30T10:33:59.932Z,42.63
2024-04-30T10:34:59.915Z,42.70
2024-04-30T10:35:59.929Z,42.33
2024-04-30T10:36:59.947Z,41.39
2024-04-30T10:38:02.723Z,41.58
2024-04-30T10:38:59.938Z,41.02
2024-04-30T10:39:59.934Z,41.77
2024-04-30T10:40:59.959Z,41.97
2024-04-30T10:41:59.951Z,41.86
2024-04-30T10:42:59.961Z,42.23
2024-04-30T10:44:00.681Z,42.33
2024-04-30T10:44:59.970Z,41.77
2024-04-30T10:45:59.983Z,41.96
2024-04-30T10:47:00.004Z,42.33
2024-04-30T10:48:00.083Z,42.33
2024-04-30T10:49:00.002Z,42.77
2024-04-30T10:50:11.817Z,42.77
2024-04-30T10:51:00.029Z,42.86
2024-04-30T10:52:00.052Z,42.86
2024-04-30T10:53:00.095Z,42.58
2024-04-30T10:54:00.049Z,42.49
2024-04-30T10:55:00.057Z,42.68
2024-04-30T10:56:01.067Z,42.49
2024-04-30T10:57:00.048Z,42.96
2024-04-30T10:58:00.064Z,42.84
2024-04-30T10:59:00.092Z,42.29
2024-04-30T11:00:00.096Z,42.84
2024-04-30T11:01:00.162Z,42.56
2024-04-30T11:02:00.078Z,42.82
2024-04-30T11:03:00.111Z,41.63
2024-04-30T11:04:00.108Z,42.21
2024-04-30T11:05:00.322Z,42.42
2024-04-30T11:06:00.114Z,42.42
2024-04-30T11:07:00.266Z,42.70
2024-04-30T11:08:00.306Z,42.96
2024-04-30T11:09:00.150Z,42.68
2024-04-30T11:10:00.196Z,43.05
2024-04-30T11:11:00.243Z,42.30
2024-04-30T11:12:00.174Z,42.77
2024-04-30T11:13:00.160Z,42.21
2024-04-30T11:14:00.816Z,42.65
2024-04-30T11:15:00.224Z,42.91
2024-04-30T11:16:07.783Z,42.26
2024-04-30T11:17:00.212Z,42.35
2024-04-30T11:18:00.493Z,42.61
2024-04-30T11:19:00.208Z,42.43
2024-04-30T11:20:00.429Z,42.71
2024-04-30T11:21:00.224Z,43.07
2024-04-30T11:22:00.241Z,42.86
2024-04-30T11:23:00.250Z,42.77
2024-04-30T11:24:00.242Z,42.68
2024-04-30T11:25:00.276Z,42.77
2024-04-30T11:26:00.276Z,42.86
2024-04-30T11:27:00.280Z,42.85
2024-04-30T11:28:00.308Z,42.59
2024-04-30T11:29:09.694Z,42.96
2024-04-30T11:30:00.342Z,42.29
2024-04-30T11:31:00.331Z,43.33
2024-04-30T11:32:00.416Z,42.50
2024-04-30T11:33:00.381Z,43.17
2024-04-30T11:34:00.328Z,43.26
2024-04-30T11:35:00.343Z,43.10
2024-04-30T11:36:00.343Z,43.40
2024-04-30T11:37:00.411Z,42.51
2024-04-30T11:38:00.595Z,42.72
2024-04-30T11:39:00.377Z,42.86
2024-04-30T11:40:00.472Z,43.84
2024-04-30T11:41:00.382Z,44.35
2024-04-30T11:42:07.276Z,43.80
2024-04-30T11:43:00.393Z,43.55
2024-04-30T11:44:00.403Z,44.53
2024-04-30T11:45:00.460Z,44.50
2024-04-30T11:46:00.446Z,44.74
2024-04-30T11:47:00.487Z,44.90
2024-04-30T11:48:00.507Z,44.96
2024-04-30T11:49:00.435Z,45.01
2024-04-30T11:50:00.472Z,44.85
2024-04-30T11:51:00.516Z,45.25
2024-04-30T11:52:00.466Z,44.89
2024-04-30T11:53:00.704Z,45.95
2024-04-30T11:54:00.508Z,45.72
2024-04-30T11:55:00.478Z,45.27
2024-04-30T11:56:00.496Z,45.31
2024-04-30T11:57:00.505Z,45.64
2024-04-30T11:58:00.502Z,46.71
2024-04-30T11:59:00.491Z,46.83
2024-04-30T12:00:00.536Z,46.78
2024-04-30T12:01:03.712Z,47.18
2024-04-30T12:02:00.586Z,47.33
2024-04-30T12:03:00.534Z,47.18
2024-04-30T12:04:00.506Z,47.56
2024-04-30T12:05:00.743Z,47.49
2024-04-30T12:06:00.537Z,47.42
2024-04-30T12:07:00.519Z,47.54
2024-04-30T12:08:00.514Z,47.25
2024-04-30T12:09:00.535Z,47.66
2024-04-30T12:10:00.550Z,47.87
2024-04-30T12:11:00.584Z,48.23
2024-04-30T12:12:00.547Z,47.56
2024-04-30T12:13:00.530Z,47.97
2024-04-30T12:14:00.527Z,48.16
2024-04-30T12:15:00.551Z,48.61
2024-04-30T12:16:01.569Z,48.49
2024-04-30T12:17:00.607Z,47.97
2024-04-30T12:18:00.697Z,47.75
2024-04-30T12:19:00.593Z,47.82
2024-04-30T12:20:00.582Z,47.13
2024-04-30T12:21:00.549Z,47.30
2024-04-30T12:22:00.551Z,47.30
2024-04-30T12:23:00.545Z,47.20
2024-04-30T12:24:00.551Z,47.18
2024-04-30T12:25:00.555Z,47.63
2024-04-30T12:26:00.559Z,47.42
2024-04-30T12:27:00.621Z,47.32
2024-04-30T12:28:00.556Z,47.11
2024-04-30T12:29:00.568Z,46.92
2024-04-30T12:30:00.596Z,47.39
2024-04-30T12:31:00.580Z,47.16
2024-04-30T12:32:00.568Z,47.53
2024-04-30T12:33:00.723Z,47.25
2024-04-30T12:34:00.577Z,47.16
2024-04-30T12:35:00.577Z,47.16
2024-04-30T12:36:00.590Z,47.63
2024-04-30T12:37:00.582Z,47.73
2024-04-30T12:38:00.595Z,47.71
2024-04-30T12:39:00.583Z,47.61
2024-04-30T12:40:01.707Z,47.61
2024-04-30T12:41:00.634Z,47.61
2024-04-30T12:42:00.593Z,47.16
2024-04-30T12:43:00.603Z,47.37
2024-04-30T12:44:00.593Z,47.20
2024-04-30T12:45:00.607Z,47.77
2024-04-30T12:46:03.892Z,47.77
2024-04-30T12:47:00.601Z,47.61
2024-04-30T12:48:00.726Z,47.71
2024-04-30T12:49:00.612Z,47.80
2024-04-30T12:50:00.610Z,49.29
2024-04-30T12:51:00.614Z,48.72
2024-04-30T12:52:00.757Z,48.54
2024-04-30T12:53:00.711Z,48.18
2024-04-30T12:54:00.625Z,48.58
2024-04-30T12:55:00.619Z,48.49
2024-04-30T12:56:00.622Z,47.47
2024-04-30T12:57:00.626Z,47.78
2024-04-30T12:58:00.629Z,47.92
2024-04-30T12:59:00.686Z,48.80
2024-04-30T13:00:00.654Z,48.44
2024-04-30T13:01:00.720Z,48.97
2024-04-30T13:02:00.693Z,49.57
2024-04-30T13:03:00.660Z,49.38
2024-04-30T13:04:00.630Z,49.69
2024-04-30T13:05:00.773Z,49.52
2024-04-30T13:06:00.634Z,50.31
2024-04-30T13:07:00.645Z,49.35
2024-04-30T13:08:00.639Z,49.40
2024-04-30T13:09:00.646Z,49.71
2024-04-30T13:10:00.639Z,50.03